sensor_id;sensor_type;location;lat;lon;timestamp;pressure;altitude;pressure_sealevel;temperature;humidity
70730;BME280;58315;53.336;55.932;2023-02-17T00:02:07;100316.66;;;-1.79;43.47
70730;BME280;58315;53.336;55.932;2023-02-17T00:04:33;100309.00;;;-1.82;44.43
70730;BME280;58315;53.336;55.932;2023-02-17T00:07:00;100309.41;;;-1.66;43.79
70730;BME280;58315;53.336;55.932;2023-02-17T00:09:26;100306.16;;;-1.73;43.81
70730;BME280;58315;53.336;55.932;2023-02-17T00:11:52;100297.84;;;-1.84;44.08
70730;BME280;58315;53.336;55.932;2023-02-17T00:14:17;100296.28;;;-1.90;44.45
70730;BME280;58315;53.336;55.932;2023-02-17T00:16:44;100295.75;;;-2.03;44.57
70730;BME280;58315;53.336;55.932;2023-02-17T00:19:11;100300.59;;;-2.23;44.80
70730;BME280;58315;53.336;55.932;2023-02-17T00:21:59;100298.69;;;-2.16;44.38
70730;BME280;58315;53.336;55.932;2023-02-17T00:24:26;100293.50;;;-2.15;44.44
70730;BME280;58315;53.336;55.932;2023-02-17T00:26:53;100292.00;;;-2.24;44.55
70730;BME280;58315;53.336;55.932;2023-02-17T00:29:38;100285.72;;;-2.48;44.57
70730;BME280;58315;53.336;55.932;2023-02-17T00:32:03;100285.09;;;-2.56;44.58
70730;BME280;58315;53.336;55.932;2023-02-17T00:34:29;100281.78;;;-2.62;44.99
70730;BME280;58315;53.336;55.932;2023-02-17T00:36:55;100279.91;;;-2.56;44.81
70730;BME280;58315;53.336;55.932;2023-02-17T00:39:21;100273.44;;;-2.39;44.97
70730;BME280;58315;53.336;55.932;2023-02-17T00:41:48;100268.97;;;-2.34;45.17
70730;BME280;58315;53.336;55.932;2023-02-17T00:44:20;100273.25;;;-2.01;44.92
70730;BME280;58315;53.336;55.932;2023-02-17T00:46:47;100261.16;;;-2.00;44.98
70730;BME280;58315;53.336;55.932;2023-02-17T00:49:21;100260.72;;;-1.85;44.58
70730;BME280;58315;53.336;55.932;2023-02-17T00:51:48;100257.28;;;-1.85;44.80
70730;BME280;58315;53.336;55.932;2023-02-17T00:54:15;100255.63;;;-1.88;44.43
70730;BME280;58315;53.336;55.932;2023-02-17T00:56:42;100248.91;;;-1.95;44.52
70730;BME280;58315;53.336;55.932;2023-02-17T00:59:09;100244.88;;;-2.05;44.69
70730;BME280;58315;53.336;55.932;2023-02-17T01:01:36;100249.34;;;-2.10;44.19
70730;BME280;58315;53.336;55.932;2023-02-17T01:04:02;100238.16;;;-2.11;44.69
70730;BME280;58315;53.336;55.932;2023-02-17T01:06:31;100240.50;;;-2.03;44.05
70730;BME280;58315;53.336;55.932;2023-02-17T01:08:59;100232.19;;;-2.14;44.23
70730;BME280;58315;53.336;55.932;2023-02-17T01:11:28;100240.19;;;-2.22;44.44
70730;BME280;58315;53.336;55.932;2023-02-17T01:13:57;100234.78;;;-2.14;44.72
70730;BME280;58315;53.336;55.932;2023-02-17T01:16:31;100236.03;;;-1.97;44.44
70730;BME280;58315;53.336;55.932;2023-02-17T01:19:03;100229.22;;;-2.01;44.70
70730;BME280;58315;53.336;55.932;2023-02-17T01:21:30;100223.06;;;-2.28;44.81
70730;BME280;58315;53.336;55.932;2023-02-17T01:23:59;100228.38;;;-2.32;44.49
70730;BME280;58315;53.336;55.932;2023-02-17T01:26:26;100219.91;;;-2.37;44.58
70730;BME280;58315;53.336;55.932;2023-02-17T01:28:53;100220.13;;;-2.47;44.26
70730;BME280;58315;53.336;55.932;2023-02-17T01:31:21;100217.38;;;-2.40;44.29
70730;BME280;58315;53.336;55.932;2023-02-17T01:33:48;100218.25;;;-2.42;44.09
70730;BME280;58315;53.336;55.932;2023-02-17T01:36:17;100216.13;;;-2.27;44.28
70730;BME280;58315;53.336;55.932;2023-02-17T01:38:43;100222.56;;;-2.09;44.15
70730;BME280;58315;53.336;55.932;2023-02-17T01:41:12;100207.16;;;-2.14;43.66
70730;BME280;58315;53.336;55.932;2023-02-17T01:43:39;100215.94;;;-2.20;43.13
70730;BME280;58315;53.336;55.932;2023-02-17T01:46:06;100210.03;;;-2.25;42.52
70730;BME280;58315;53.336;55.932;2023-02-17T01:48:37;100205.47;;;-2.15;42.76
70730;BME280;58315;53.336;55.932;2023-02-17T01:51:17;100205.47;;;-2.15;43.34
70730;BME280;58315;53.336;55.932;2023-02-17T01:54:06;100202.22;;;-2.23;42.71
70730;BME280;58315;53.336;55.932;2023-02-17T01:56:36;100207.50;;;-2.26;43.07
70730;BME280;58315;53.336;55.932;2023-02-17T01:59:07;100202.97;;;-2.18;43.70
70730;BME280;58315;53.336;55.932;2023-02-17T02:01:35;100201.28;;;-2.21;43.17
70730;BME280;58315;53.336;55.932;2023-02-17T02:04:03;100201.44;;;-2.25;43.47
70730;BME280;58315;53.336;55.932;2023-02-17T02:06:33;100187.88;;;-2.35;43.43
70730;BME280;58315;53.336;55.932;2023-02-17T02:09:30;100194.00;;;-2.37;43.41
70730;BME280;58315;53.336;55.932;2023-02-17T02:11:57;100187.97;;;-2.38;43.70
70730;BME280;58315;53.336;55.932;2023-02-17T02:14:29;100191.22;;;-2.30;44.01
70730;BME280;58315;53.336;55.932;2023-02-17T02:17:07;100187.66;;;-2.27;44.37
70730;BME280;58315;53.336;55.932;2023-02-17T02:33:52;100165.94;;;-2.53;44.92
70730;BME280;58315;53.336;55.932;2023-02-17T02:39:02;100169.34;;;-2.51;44.77
70730;BME280;58315;53.336;55.932;2023-02-17T02:41:34;100170.03;;;-2.44;44.83
70730;BME280;58315;53.336;55.932;2023-02-17T02:44:06;100175.31;;;-2.49;44.38
70730;BME280;58315;53.336;55.932;2023-02-17T02:46:33;100167.88;;;-2.59;44.04
70730;BME280;58315;53.336;55.932;2023-02-17T02:49:00;100164.22;;;-2.52;44.18
70730;BME280;58315;53.336;55.932;2023-02-17T03:02:31;100162.50;;;-2.53;42.98
70730;BME280;58315;53.336;55.932;2023-02-17T03:07:39;100162.31;;;-2.78;42.91
70730;BME280;58315;53.336;55.932;2023-02-17T03:10:07;100163.28;;;-2.82;43.29
70730;BME280;58315;53.336;55.932;2023-02-17T03:12:35;100157.13;;;-2.77;43.17
70730;BME280;58315;53.336;55.932;2023-02-17T03:15:07;100165.09;;;-2.84;42.43
70730;BME280;58315;53.336;55.932;2023-02-17T03:17:38;100157.31;;;-2.84;42.70
70730;BME280;58315;53.336;55.932;2023-02-17T03:20:05;100163.38;;;-2.85;41.79
70730;BME280;58315;53.336;55.932;2023-02-17T03:22:42;100165.28;;;-2.92;41.62
70730;BME280;58315;53.336;55.932;2023-02-17T03:25:09;100160.19;;;-2.95;41.76
70730;BME280;58315;53.336;55.932;2023-02-17T03:27:35;100160.63;;;-2.79;41.48
70730;BME280;58315;53.336;55.932;2023-02-17T03:30:20;100163.78;;;-2.68;41.26
70730;BME280;58315;53.336;55.932;2023-02-17T03:32:45;100172.31;;;-2.64;41.19
70730;BME280;58315;53.336;55.932;2023-02-17T03:35:12;100167.34;;;-2.72;41.00
70730;BME280;58315;53.336;55.932;2023-02-17T03:37:38;100169.28;;;-2.80;40.63
70730;BME280;58315;53.336;55.932;2023-02-17T03:40:07;100164.09;;;-2.80;40.63
70730;BME280;58315;53.336;55.932;2023-02-17T03:42:33;100160.19;;;-2.95;40.60
70730;BME280;58315;53.336;55.932;2023-02-17T03:45:18;100169.44;;;-2.86;40.61
70730;BME280;58315;53.336;55.932;2023-02-17T03:47:44;100165.19;;;-2.89;39.77
70730;BME280;58315;53.336;55.932;2023-02-17T03:50:10;100158.59;;;-3.01;40.24
70730;BME280;58315;53.336;55.932;2023-02-17T03:52:36;100158.38;;;-2.93;40.61
70730;BME280;58315;53.336;55.932;2023-02-17T03:55:02;100160.91;;;-2.90;39.81
70730;BME280;58315;53.336;55.932;2023-02-17T03:57:28;100168.38;;;-2.79;39.78
70730;BME280;58315;53.336;55.932;2023-02-17T03:59:56;100156.84;;;-2.66;39.35
70730;BME280;58315;53.336;55.932;2023-02-17T04:02:22;100154.88;;;-2.58;39.25
70730;BME280;58315;53.336;55.932;2023-02-17T04:04:48;100148.81;;;-2.57;39.31
70730;BME280;58315;53.336;55.932;2023-02-17T04:07:14;100151.28;;;-2.52;38.96
70730;BME280;58315;53.336;55.932;2023-02-17T04:09:43;100149.28;;;-2.43;39.27
70730;BME280;58315;53.336;55.932;2023-02-17T04:12:09;100141.66;;;-2.49;38.70
70730;BME280;58315;53.336;55.932;2023-02-17T04:14:35;100133.66;;;-2.39;38.06
70730;BME280;58315;53.336;55.932;2023-02-17T04:17:19;100133.28;;;-2.27;37.97
70730;BME280;58315;53.336;55.932;2023-02-17T04:19:45;100134.50;;;-2.39;37.40
70730;BME280;58315;53.336;55.932;2023-02-17T04:22:11;100125.59;;;-2.29;37.70
70730;BME280;58315;53.336;55.932;2023-02-17T04:24:37;100114.94;;;-2.20;38.24
70730;BME280;58315;53.336;55.932;2023-02-17T04:27:04;100124.28;;;-2.14;37.70
70730;BME280;58315;53.336;55.932;2023-02-17T04:29:31;100119.69;;;-2.04;37.67
70730;BME280;58315;53.336;55.932;2023-02-17T04:32:16;100112.03;;;-2.09;36.78
70730;BME280;58315;53.336;55.932;2023-02-17T04:34:42;100110.94;;;-2.00;37.19
70730;BME280;58315;53.336;55.932;2023-02-17T04:37:08;100114.00;;;-2.15;36.88
70730;BME280;58315;53.336;55.932;2023-02-17T04:39:34;100120.88;;;-2.16;36.74
70730;BME280;58315;53.336;55.932;2023-02-17T04:42:00;100115.53;;;-2.10;36.89
70730;BME280;58315;53.336;55.932;2023-02-17T04:44:26;100114.09;;;-2.20;36.10
70730;BME280;58315;53.336;55.932;2023-02-17T04:46:51;100113.34;;;-2.24;36.65
70730;BME280;58315;53.336;55.932;2023-02-17T04:49:17;100113.50;;;-2.28;36.79
70730;BME280;58315;53.336;55.932;2023-02-17T04:51:43;100104.56;;;-2.18;36.67
70730;BME280;58315;53.336;55.932;2023-02-17T04:54:09;100111.25;;;-2.11;36.48
70730;BME280;58315;53.336;55.932;2023-02-17T04:56:35;100111.97;;;-2.06;36.24
70730;BME280;58315;53.336;55.932;2023-02-17T04:59:01;100115.06;;;-1.95;36.05
70730;BME280;58315;53.336;55.932;2023-02-17T05:01:27;100122.19;;;-1.73;35.81
70730;BME280;58315;53.336;55.932;2023-02-17T05:03:53;100117.22;;;-1.53;36.67
70730;BME280;58315;53.336;55.932;2023-02-17T05:06:19;100115.13;;;-1.41;35.74
70730;BME280;58315;53.336;55.932;2023-02-17T05:08:45;100116.38;;;-1.27;35.76
70730;BME280;58315;53.336;55.932;2023-02-17T05:11:15;100109.00;;;-1.14;35.31
70730;BME280;58315;53.336;55.932;2023-02-17T05:13:41;100110.19;;;-0.98;36.01
70730;BME280;58315;53.336;55.932;2023-02-17T05:16:07;100104.47;;;-0.82;36.07
70730;BME280;58315;53.336;55.932;2023-02-17T05:18:33;100103.06;;;-0.67;35.35
70730;BME280;58315;53.336;55.932;2023-02-17T05:20:59;100098.34;;;-0.80;34.41
70730;BME280;58315;53.336;55.932;2023-02-17T05:23:25;100096.22;;;-0.93;33.98
70730;BME280;58315;53.336;55.932;2023-02-17T05:25:51;100087.47;;;-1.16;34.08
70730;BME280;58315;53.336;55.932;2023-02-17T05:28:17;100081.84;;;-1.02;34.06
70730;BME280;58315;53.336;55.932;2023-02-17T05:30:43;100086.50;;;-0.88;34.59
70730;BME280;58315;53.336;55.932;2023-02-17T05:33:09;100101.28;;;-0.65;35.41
70730;BME280;58315;53.336;55.932;2023-02-17T05:35:35;100097.69;;;-0.61;34.14
70730;BME280;58315;53.336;55.932;2023-02-17T05:38:01;100094.69;;;-0.51;34.40
70730;BME280;58315;53.336;55.932;2023-02-17T05:40:27;100094.63;;;-0.49;34.41
70730;BME280;58315;53.336;55.932;2023-02-17T05:42:53;100098.16;;;-0.75;33.78
70730;BME280;58315;53.336;55.932;2023-02-17T05:45:19;100094.09;;;-0.82;34.46
70730;BME280;58315;53.336;55.932;2023-02-17T05:47:45;100088.13;;;-0.61;33.99
70730;BME280;58315;53.336;55.932;2023-02-17T05:50:11;100101.88;;;-0.59;34.11
70730;BME280;58315;53.336;55.932;2023-02-17T05:52:37;100096.94;;;-0.65;34.17
70730;BME280;58315;53.336;55.932;2023-02-17T05:55:03;100092.41;;;-0.83;33.61
70730;BME280;58315;53.336;55.932;2023-02-17T05:57:30;100091.84;;;-0.68;34.87
70730;BME280;58315;53.336;55.932;2023-02-17T05:59:57;100099.63;;;-0.68;34.64
70730;BME280;58315;53.336;55.932;2023-02-17T06:02:22;100094.69;;;-0.51;34.29
70730;BME280;58315;53.336;55.932;2023-02-17T06:04:48;100087.09;;;-0.33;35.07
70730;BME280;58315;53.336;55.932;2023-02-17T06:07:14;100067.59;;;-0.43;33.65
70730;BME280;58315;53.336;55.932;2023-02-17T06:09:40;100070.59;;;-0.54;34.04
70730;BME280;58315;53.336;55.932;2023-02-17T06:12:06;100068.22;;;-0.60;34.00
70730;BME280;58315;53.336;55.932;2023-02-17T06:14:32;100069.84;;;-0.58;35.15
70730;BME280;58315;53.336;55.932;2023-02-17T06:16:58;100066.28;;;-0.55;35.16
70730;BME280;58315;53.336;55.932;2023-02-17T06:19:25;100065.38;;;-0.31;35.23
70730;BME280;58315;53.336;55.932;2023-02-17T06:21:51;100063.50;;;-0.27;33.43
70730;BME280;58315;53.336;55.932;2023-02-17T06:24:17;100064.84;;;-0.40;34.36
70730;BME280;58315;53.336;55.932;2023-02-17T06:26:43;100055.69;;;-0.73;34.21
70730;BME280;58315;53.336;55.932;2023-02-17T06:29:09;100062.50;;;-0.70;34.60
70730;BME280;58315;53.336;55.932;2023-02-17T06:31:35;100065.03;;;-0.45;35.25
70730;BME280;58315;53.336;55.932;2023-02-17T06:34:01;100060.28;;;-0.34;34.92
70730;BME280;58315;53.336;55.932;2023-02-17T06:36:27;100049.97;;;-0.35;34.34
70730;BME280;58315;53.336;55.932;2023-02-17T06:38:53;100049.94;;;-0.57;35.20
70730;BME280;58315;53.336;55.932;2023-02-17T06:41:19;100047.41;;;-0.37;35.55
70730;BME280;58315;53.336;55.932;2023-02-17T06:43:44;100045.28;;;-0.49;34.67
70730;BME280;58315;53.336;55.932;2023-02-17T06:46:11;100025.81;;;-0.37;35.01
70730;BME280;58315;53.336;55.932;2023-02-17T06:48:36;100028.72;;;-0.68;35.05
70730;BME280;58315;53.336;55.932;2023-02-17T06:51:03;100022.38;;;-0.85;34.80
70730;BME280;58315;53.336;55.932;2023-02-17T06:53:29;100014.22;;;-0.98;35.08
70730;BME280;58315;53.336;55.932;2023-02-17T06:55:55;100024.69;;;-1.01;35.44
70730;BME280;58315;53.336;55.932;2023-02-17T06:58:20;100020.56;;;-1.06;36.10
70730;BME280;58315;53.336;55.932;2023-02-17T07:00:46;100010.81;;;-1.00;36.30
70730;BME280;58315;53.336;55.932;2023-02-17T07:03:12;100002.41;;;-1.06;36.05
70730;BME280;58315;53.336;55.932;2023-02-17T07:05:38;100002.66;;;-1.12;36.95
70730;BME280;58315;53.336;55.932;2023-02-17T07:08:05;99994.38;;;-0.99;36.58
70730;BME280;58315;53.336;55.932;2023-02-17T07:10:31;99995.69;;;-0.88;36.31
70730;BME280;58315;53.336;55.932;2023-02-17T07:12:57;99991.63;;;-0.95;35.80
70730;BME280;58315;53.336;55.932;2023-02-17T07:15:23;99983.53;;;-0.86;36.34
70730;BME280;58315;53.336;55.932;2023-02-17T07:17:49;99989.16;;;-0.75;36.41
70730;BME280;58315;53.336;55.932;2023-02-17T07:20:15;99979.53;;;-0.50;36.10
70730;BME280;58315;53.336;55.932;2023-02-17T07:22:41;99967.91;;;-0.39;35.89
70730;BME280;58315;53.336;55.932;2023-02-17T07:25:07;99974.25;;;-0.25;35.82
70730;BME280;58315;53.336;55.932;2023-02-17T07:27:36;99971.38;;;0.04;35.78
70730;BME280;58315;53.336;55.932;2023-02-17T07:30:03;99964.19;;;0.31;36.29
70730;BME280;58315;53.336;55.932;2023-02-17T07:32:30;99966.84;;;0.70;35.90
70730;BME280;58315;53.336;55.932;2023-02-17T07:34:56;99973.06;;;0.86;34.71
70730;BME280;58315;53.336;55.932;2023-02-17T07:37:22;99965.94;;;0.71;34.10
70730;BME280;58315;53.336;55.932;2023-02-17T07:39:48;99965.69;;;0.57;34.11
70730;BME280;58315;53.336;55.932;2023-02-17T07:42:14;99962.69;;;0.45;34.53
70730;BME280;58315;53.336;55.932;2023-02-17T07:44:45;99963.47;;;0.47;35.59
70730;BME280;58315;53.336;55.932;2023-02-17T07:47:11;99958.69;;;0.59;34.81
70730;BME280;58315;53.336;55.932;2023-02-17T07:49:37;99956.16;;;0.37;34.60
70730;BME280;58315;53.336;55.932;2023-02-17T07:52:03;99959.47;;;0.40;34.86
70730;BME280;58315;53.336;55.932;2023-02-17T07:54:29;99960.94;;;0.66;35.00
70730;BME280;58315;53.336;55.932;2023-02-17T07:56:55;99955.06;;;1.01;34.37
70730;BME280;58315;53.336;55.932;2023-02-17T07:59:21;99949.59;;;1.26;34.19
70730;BME280;58315;53.336;55.932;2023-02-17T08:01:47;99954.66;;;1.48;34.44
70730;BME280;58315;53.336;55.932;2023-02-17T08:04:15;99954.72;;;1.82;34.66
70730;BME280;58315;53.336;55.932;2023-02-17T08:06:41;99955.06;;;1.93;34.31
70730;BME280;58315;53.336;55.932;2023-02-17T08:09:09;99956.44;;;2.01;33.85
70730;BME280;58315;53.336;55.932;2023-02-17T08:11:53;99954.28;;;1.91;32.80
70730;BME280;58315;53.336;55.932;2023-02-17T08:14:41;99944.25;;;1.84;33.15
70730;BME280;58315;53.336;55.932;2023-02-17T08:17:07;99948.94;;;1.95;33.97
70730;BME280;58315;53.336;55.932;2023-02-17T08:19:33;99942.13;;;2.09;33.13
70730;BME280;58315;53.336;55.932;2023-02-17T08:21:59;99937.59;;;2.13;33.02
70730;BME280;58315;53.336;55.932;2023-02-17T08:24:25;99937.59;;;2.13;32.31
70730;BME280;58315;53.336;55.932;2023-02-17T08:26:52;99939.78;;;1.86;32.97
70730;BME280;58315;53.336;55.932;2023-02-17T08:29:18;99922.38;;;1.69;33.42
70730;BME280;58315;53.336;55.932;2023-02-17T08:31:45;99930.53;;;1.80;33.40
70730;BME280;58315;53.336;55.932;2023-02-17T08:34:13;99930.53;;;1.80;33.68
70730;BME280;58315;53.336;55.932;2023-02-17T08:36:39;99924.47;;;1.43;32.80
70730;BME280;58315;53.336;55.932;2023-02-17T08:39:10;99927.28;;;1.39;33.65
70730;BME280;58315;53.336;55.932;2023-02-17T08:41:38;99920.16;;;1.61;34.23
70730;BME280;58315;53.336;55.932;2023-02-17T08:44:11;99915.94;;;1.59;33.29
70730;BME280;58315;53.336;55.932;2023-02-17T08:46:38;99924.16;;;1.50;33.49
70730;BME280;58315;53.336;55.932;2023-02-17T08:49:07;99918.06;;;1.68;33.14
70730;BME280;58315;53.336;55.932;2023-02-17T08:51:33;99917.03;;;1.72;33.14
70730;BME280;58315;53.336;55.932;2023-02-17T08:54:00;99913.47;;;1.56;32.94
70730;BME280;58315;53.336;55.932;2023-02-17T08:56:27;99906.81;;;1.50;32.97
70730;BME280;58315;53.336;55.932;2023-02-17T08:58:53;99904.66;;;1.58;34.06
70730;BME280;58315;53.336;55.932;2023-02-17T09:01:20;99898.09;;;1.68;33.31
70730;BME280;58315;53.336;55.932;2023-02-17T09:03:48;99902.09;;;1.39;32.91
70730;BME280;58315;53.336;55.932;2023-02-17T09:06:15;99900.56;;;1.35;33.41
70730;BME280;58315;53.336;55.932;2023-02-17T09:08:42;99888.31;;;1.37;34.46
70730;BME280;58315;53.336;55.932;2023-02-17T09:11:08;99895.69;;;1.64;35.08
70730;BME280;58315;53.336;55.932;2023-02-17T09:13:35;99894.97;;;1.79;33.96
70730;BME280;58315;53.336;55.932;2023-02-17T09:16:20;99888.50;;;1.52;34.74
70730;BME280;58315;53.336;55.932;2023-02-17T09:18:52;99878.00;;;1.71;33.71
70730;BME280;58315;53.336;55.932;2023-02-17T09:21:19;99886.53;;;1.38;33.46
70730;BME280;58315;53.336;55.932;2023-02-17T09:23:46;99894.31;;;1.57;33.91
70730;BME280;58315;53.336;55.932;2023-02-17T09:26:13;99897.56;;;1.62;33.78
70730;BME280;58315;53.336;55.932;2023-02-17T09:28:40;99894.63;;;1.68;33.37
70730;BME280;58315;53.336;55.932;2023-02-17T09:31:22;99886.84;;;1.85;34.18
70730;BME280;58315;53.336;55.932;2023-02-17T09:33:48;99883.31;;;1.86;34.30
70730;BME280;58315;53.336;55.932;2023-02-17T09:36:18;99877.88;;;1.91;34.05
70730;BME280;58315;53.336;55.932;2023-02-17T09:38:45;99876.13;;;1.91;33.81
70730;BME280;58315;53.336;55.932;2023-02-17T09:46:46;99877.09;;;1.54;34.49
70730;BME280;58315;53.336;55.932;2023-02-17T09:49:19;99872.88;;;1.69;34.92
70730;BME280;58315;53.336;55.932;2023-02-17T09:52:01;99868.44;;;1.88;34.87
70730;BME280;58315;53.336;55.932;2023-02-17T09:57:13;99865.44;;;2.13;34.02
70730;BME280;58315;53.336;55.932;2023-02-17T09:59:49;99865.41;;;1.98;34.35
70730;BME280;58315;53.336;55.932;2023-02-17T10:04:56;99857.88;;;2.09;34.90
70730;BME280;58315;53.336;55.932;2023-02-17T10:07:40;99856.78;;;1.96;35.71
70730;BME280;58315;53.336;55.932;2023-02-17T10:10:11;99869.22;;;1.90;36.19
70730;BME280;58315;53.336;55.932;2023-02-17T10:12:49;99843.41;;;1.68;36.30
70730;BME280;58315;53.336;55.932;2023-02-17T10:15:40;99862.72;;;1.45;36.70
70730;BME280;58315;53.336;55.932;2023-02-17T10:18:32;99851.84;;;1.37;36.71
70730;BME280;58315;53.336;55.932;2023-02-17T10:21:06;99848.69;;;1.31;37.20
70730;BME280;58315;53.336;55.932;2023-02-17T10:23:37;99849.44;;;0.96;37.16
70730;BME280;58315;53.336;55.932;2023-02-17T10:29:11;99839.78;;;0.99;37.14
70730;BME280;58315;53.336;55.932;2023-02-17T10:34:37;99844.09;;;1.00;36.95
70730;BME280;58315;53.336;55.932;2023-02-17T10:39:54;99846.16;;;0.93;36.84
70730;BME280;58315;53.336;55.932;2023-02-17T10:42:36;99839.50;;;1.05;37.06
70730;BME280;58315;53.336;55.932;2023-02-17T10:47:34;99835.78;;;0.91;37.26
70730;BME280;58315;53.336;55.932;2023-02-17T10:50:02;99835.13;;;0.88;37.02
70730;BME280;58315;53.336;55.932;2023-02-17T10:52:38;99842.72;;;0.74;37.88
70730;BME280;58315;53.336;55.932;2023-02-17T10:57:39;99842.28;;;0.83;37.95
70730;BME280;58315;53.336;55.932;2023-02-17T11:00:14;99839.19;;;0.93;38.40
70730;BME280;58315;53.336;55.932;2023-02-17T11:02:42;99841.69;;;0.76;38.81
70730;BME280;58315;53.336;55.932;2023-02-17T11:05:29;99843.72;;;0.51;38.69
70730;BME280;58315;53.336;55.932;2023-02-17T11:08:15;99839.78;;;0.42;38.93
70730;BME280;58315;53.336;55.932;2023-02-17T11:10:57;99835.19;;;0.28;39.44
70730;BME280;58315;53.336;55.932;2023-02-17T11:13:35;99833.09;;;0.36;38.84
70730;BME280;58315;53.336;55.932;2023-02-17T11:16:02;99830.00;;;0.28;38.82
70730;BME280;58315;53.336;55.932;2023-02-17T11:18:34;99837.78;;;0.28;39.04
70730;BME280;58315;53.336;55.932;2023-02-17T11:21:07;99820.53;;;0.27;39.17
70730;BME280;58315;53.336;55.932;2023-02-17T11:23:35;99823.88;;;0.29;39.12
70730;BME280;58315;53.336;55.932;2023-02-17T11:26:10;99823.13;;;0.27;39.13
70730;BME280;58315;53.336;55.932;2023-02-17T11:28:41;99821.53;;;-0.16;39.99
70730;BME280;58315;53.336;55.932;2023-02-17T11:31:21;99820.53;;;-0.55;40.19
70730;BME280;58315;53.336;55.932;2023-02-17T11:33:50;99818.41;;;-0.87;40.33
70730;BME280;58315;53.336;55.932;2023-02-17T11:36:26;99827.00;;;-0.65;41.09
70730;BME280;58315;53.336;55.932;2023-02-17T11:38:53;99827.19;;;-0.47;40.85
70730;BME280;58315;53.336;55.932;2023-02-17T11:41:19;99812.00;;;-0.36;40.39
70730;BME280;58315;53.336;55.932;2023-02-17T11:43:56;99822.09;;;-0.30;39.99
70730;BME280;58315;53.336;55.932;2023-02-17T11:46:39;99822.22;;;-0.33;40.22
70730;BME280;58315;53.336;55.932;2023-02-17T11:55:21;99821.66;;;-0.40;39.73
70730;BME280;58315;53.336;55.932;2023-02-17T12:06:13;99811.69;;;-1.15;42.77
70730;BME280;58315;53.336;55.932;2023-02-17T12:22:23;99806.25;;;-1.31;43.20
70730;BME280;58315;53.336;55.932;2023-02-17T12:25:07;99795.47;;;-1.43;43.94
70730;BME280;58315;53.336;55.932;2023-02-17T12:27:46;99799.00;;;-1.68;44.34
70730;BME280;58315;53.336;55.932;2023-02-17T12:33:33;99799.72;;;-1.41;44.99
70730;BME280;58315;53.336;55.932;2023-02-17T12:36:04;99801.88;;;-1.52;45.36
70730;BME280;58315;53.336;55.932;2023-02-17T12:38:38;99793.81;;;-1.44;46.24
70730;BME280;58315;53.336;55.932;2023-02-17T12:44:02;99801.13;;;-1.56;45.99
70730;BME280;58315;53.336;55.932;2023-02-17T12:46:42;99800.22;;;-1.55;46.44
70730;BME280;58315;53.336;55.932;2023-02-17T12:51:47;99799.88;;;-1.69;47.85
70730;BME280;58315;53.336;55.932;2023-02-17T12:55:03;99794.50;;;-1.63;48.40
70730;BME280;58315;53.336;55.932;2023-02-17T12:57:48;99798.94;;;-1.66;49.27
70730;BME280;58315;53.336;55.932;2023-02-17T13:00:28;99803.31;;;-1.68;49.40
70730;BME280;58315;53.336;55.932;2023-02-17T13:02:58;99797.00;;;-1.61;49.06
70730;BME280;58315;53.336;55.932;2023-02-17T13:08:39;99799.47;;;-1.57;49.77
70730;BME280;58315;53.336;55.932;2023-02-17T13:11:25;99807.94;;;-1.77;50.39
70730;BME280;58315;53.336;55.932;2023-02-17T13:13:51;99800.34;;;-2.05;50.70
70730;BME280;58315;53.336;55.932;2023-02-17T13:16:17;99808.94;;;-2.29;51.91
70730;BME280;58315;53.336;55.932;2023-02-17T13:18:45;99800.91;;;-2.22;52.14
70730;BME280;58315;53.336;55.932;2023-02-17T13:21:30;99808.38;;;-2.39;52.31
70730;BME280;58315;53.336;55.932;2023-02-17T13:24:03;99804.38;;;-2.48;52.42
70730;BME280;58315;53.336;55.932;2023-02-17T13:26:38;99803.00;;;-2.58;52.38
70730;BME280;58315;53.336;55.932;2023-02-17T13:29:17;99805.00;;;-2.66;52.53
70730;BME280;58315;53.336;55.932;2023-02-17T13:31:47;99812.78;;;-2.68;52.79
70730;BME280;58315;53.336;55.932;2023-02-17T13:34:40;99812.94;;;-2.72;52.78
70730;BME280;58315;53.336;55.932;2023-02-17T13:39:44;99811.25;;;-3.00;53.49
70730;BME280;58315;53.336;55.932;2023-02-17T13:42:33;99817.16;;;-2.96;53.63
70730;BME280;58315;53.336;55.932;2023-02-17T13:44:59;99812.31;;;-3.07;53.73
70730;BME280;58315;53.336;55.932;2023-02-17T13:47:34;99813.63;;;-2.94;53.50
70730;BME280;58315;53.336;55.932;2023-02-17T13:50:01;99819.88;;;-3.01;53.32
70730;BME280;58315;53.336;55.932;2023-02-17T13:52:30;99815.09;;;-3.13;53.70
70730;BME280;58315;53.336;55.932;2023-02-17T13:55:02;99815.09;;;-3.13;53.74
70730;BME280;58315;53.336;55.932;2023-02-17T13:57:32;99817.69;;;-3.13;53.58
70730;BME280;58315;53.336;55.932;2023-02-17T14:00:09;99820.94;;;-3.06;53.81
70730;BME280;58315;53.336;55.932;2023-02-17T14:02:50;99826.63;;;-2.97;53.79
70730;BME280;58315;53.336;55.932;2023-02-17T14:05:41;99824.94;;;-2.98;53.43
70730;BME280;58315;53.336;55.932;2023-02-17T14:08:16;99822.66;;;-3.07;53.82
70730;BME280;58315;53.336;55.932;2023-02-17T14:10:43;99834.44;;;-3.26;53.84
70730;BME280;58315;53.336;55.932;2023-02-17T14:13:10;99829.50;;;-3.34;54.41
70730;BME280;58315;53.336;55.932;2023-02-17T14:15:37;99830.97;;;-3.25;54.58
70730;BME280;58315;53.336;55.932;2023-02-17T14:18:15;99841.72;;;-3.39;54.57
70730;BME280;58315;53.336;55.932;2023-02-17T14:20:41;99841.09;;;-3.47;54.96
70730;BME280;58315;53.336;55.932;2023-02-17T14:23:09;99835.78;;;-3.43;55.23
70730;BME280;58315;53.336;55.932;2023-02-17T14:25:42;99839.91;;;-3.37;55.10
70730;BME280;58315;53.336;55.932;2023-02-17T14:28:24;99833.06;;;-3.38;55.00
70730;BME280;58315;53.336;55.932;2023-02-17T14:30:52;99833.97;;;-3.39;55.10
70730;BME280;58315;53.336;55.932;2023-02-17T14:33:22;99831.94;;;-3.29;54.88
70730;BME280;58315;53.336;55.932;2023-02-17T14:35:50;99832.19;;;-3.09;54.40
70730;BME280;58315;53.336;55.932;2023-02-17T14:38:28;99838.44;;;-2.88;54.31
70730;BME280;58315;53.336;55.932;2023-02-17T14:40:57;99826.94;;;-3.06;53.86